sensor_id;sensor_type;location;lat;lon;timestamp;temperature;humidity
5476;DHT22;2760;50.000;9.194;2023-06-14T00:01:00;17.50;84.50
5476;DHT22;2760;50.000;9.194;2023-06-14T00:03:31;17.40;83.60
5476;DHT22;2760;50.000;9.194;2023-06-14T00:06:00;17.30;83.90
5476;DHT22;2760;50.000;9.194;2023-06-14T00:08:27;17.20;82.10
5476;DHT22;2760;50.000;9.194;2023-06-14T00:10:56;17.10;81.70
5476;DHT22;2760;50.000;9.194;2023-06-14T00:13:23;17.10;82.40
5476;DHT22;2760;50.000;9.194;2023-06-14T00:15:50;16.90;82.20
5476;DHT22;2760;50.000;9.194;2023-06-14T00:18:20;17.00;82.40
5476;DHT22;2760;50.000;9.194;2023-06-14T00:20:50;15.90;81.80
5476;DHT22;2760;50.000;9.194;2023-06-14T00:23:18;16.90;83.20
5476;DHT22;2760;50.000;9.194;2023-06-14T00:25:45;17.00;83.00
5476;DHT22;2760;50.000;9.194;2023-06-14T00:28:14;16.80;84.20
5476;DHT22;2760;50.000;9.194;2023-06-14T00:30:43;16.90;82.70
5476;DHT22;2760;50.000;9.194;2023-06-14T00:33:12;17.20;82.40
5476;DHT22;2760;50.000;9.194;2023-06-14T00:35:43;17.30;82.00
5476;DHT22;2760;50.000;9.194;2023-06-14T00:38:10;17.30;82.10
5476;DHT22;2760;50.000;9.194;2023-06-14T00:40:40;17.30;81.60
5476;DHT22;2760;50.000;9.194;2023-06-14T00:43:08;17.30;81.70
5476;DHT22;2760;50.000;9.194;2023-06-14T00:45:37;17.40;81.10
5476;DHT22;2760;50.000;9.194;2023-06-14T00:48:04;17.50;80.00
5476;DHT22;2760;50.000;9.194;2023-06-14T00:50:33;17.50;80.30
5476;DHT22;2760;50.000;9.194;2023-06-14T00:53:01;17.70;79.90
5476;DHT22;2760;50.000;9.194;2023-06-14T00:55:29;17.60;79.40
5476;DHT22;2760;50.000;9.194;2023-06-14T00:57:56;17.60;78.80
5476;DHT22;2760;50.000;9.194;2023-06-14T01:00:24;17.70;78.20
5476;DHT22;2760;50.000;9.194;2023-06-14T01:02:56;17.90;79.30
5476;DHT22;2760;50.000;9.194;2023-06-14T01:05:23;17.90;80.20
5476;DHT22;2760;50.000;9.194;2023-06-14T01:08:05;17.90;79.70
5476;DHT22;2760;50.000;9.194;2023-06-14T01:10:44;17.90;78.30
5476;DHT22;2760;50.000;9.194;2023-06-14T01:13:56;17.90;78.50
5476;DHT22;2760;50.000;9.194;2023-06-14T01:16:27;17.80;79.00
5476;DHT22;2760;50.000;9.194;2023-06-14T01:18:57;17.60;79.10
5476;DHT22;2760;50.000;9.194;2023-06-14T01:21:25;17.80;79.00
5476;DHT22;2760;50.000;9.194;2023-06-14T01:23:56;17.80;79.10
5476;DHT22;2760;50.000;9.194;2023-06-14T01:26:25;17.90;78.60
5476;DHT22;2760;50.000;9.194;2023-06-14T01:28:55;18.00;77.50
5476;DHT22;2760;50.000;9.194;2023-06-14T01:31:24;18.00;79.40
5476;DHT22;2760;50.000;9.194;2023-06-14T01:33:55;17.90;79.10
5476;DHT22;2760;50.000;9.194;2023-06-14T01:36:26;17.70;79.50
5476;DHT22;2760;50.000;9.194;2023-06-14T01:38:59;17.60;79.20
5476;DHT22;2760;50.000;9.194;2023-06-14T01:41:27;17.60;80.10
5476;DHT22;2760;50.000;9.194;2023-06-14T01:43:56;17.10;81.00
5476;DHT22;2760;50.000;9.194;2023-06-14T01:46:25;17.00;81.50
5476;DHT22;2760;50.000;9.194;2023-06-14T01:48:54;16.90;82.60
5476;DHT22;2760;50.000;9.194;2023-06-14T01:51:23;17.00;82.90
5476;DHT22;2760;50.000;9.194;2023-06-14T01:53:51;16.70;83.80
5476;DHT22;2760;50.000;9.194;2023-06-14T01:56:21;16.70;84.00
5476;DHT22;2760;50.000;9.194;2023-06-14T01:58:48;16.50;83.10
5476;DHT22;2760;50.000;9.194;2023-06-14T02:01:15;16.40;84.30
5476;DHT22;2760;50.000;9.194;2023-06-14T02:03:44;16.70;86.20
5476;DHT22;2760;50.000;9.194;2023-06-14T02:06:15;15.90;86.40
5476;DHT22;2760;50.000;9.194;2023-06-14T02:08:42;16.60;87.50
5476;DHT22;2760;50.000;9.194;2023-06-14T02:11:10;15.70;87.60
5476;DHT22;2760;50.000;9.194;2023-06-14T02:13:39;15.60;88.10
5476;DHT22;2760;50.000;9.194;2023-06-14T02:16:07;15.40;88.00
5476;DHT22;2760;50.000;9.194;2023-06-14T02:18:34;16.20;89.40
5476;DHT22;2760;50.000;9.194;2023-06-14T02:21:01;15.40;88.80
5476;DHT22;2760;50.000;9.194;2023-06-14T02:23:29;13.70;86.90
5476;DHT22;2760;50.000;9.194;2023-06-14T02:25:58;15.40;89.70
5476;DHT22;2760;50.000;9.194;2023-06-14T02:28:26;16.30;90.00
5476;DHT22;2760;50.000;9.194;2023-06-14T02:30:56;15.30;89.10
5476;DHT22;2760;50.000;9.194;2023-06-14T02:33:24;17.50;91.00
5476;DHT22;2760;50.000;9.194;2023-06-14T02:35:52;15.30;90.00
5476;DHT22;2760;50.000;9.194;2023-06-14T02:38:19;15.20;90.20
5476;DHT22;2760;50.000;9.194;2023-06-14T02:40:48;15.30;90.40
5476;DHT22;2760;50.000;9.194;2023-06-14T02:43:15;17.00;91.70
5476;DHT22;2760;50.000;9.194;2023-06-14T02:45:43;14.90;91.10
5476;DHT22;2760;50.000;9.194;2023-06-14T02:48:13;14.70;91.10
5476;DHT22;2760;50.000;9.194;2023-06-14T02:50:40;14.70;91.10
5476;DHT22;2760;50.000;9.194;2023-06-14T02:53:08;14.50;90.90
5476;DHT22;2760;50.000;9.194;2023-06-14T02:55:36;14.50;91.60
5476;DHT22;2760;50.000;9.194;2023-06-14T02:58:06;14.50;91.60
5476;DHT22;2760;50.000;9.194;2023-06-14T03:00:33;14.60;91.80
5476;DHT22;2760;50.000;9.194;2023-06-14T03:03:02;14.40;91.40
5476;DHT22;2760;50.000;9.194;2023-06-14T03:05:32;14.60;91.60
5476;DHT22;2760;50.000;9.194;2023-06-14T03:07:59;14.80;91.10
5476;DHT22;2760;50.000;9.194;2023-06-14T03:10:28;14.80;90.90
5476;DHT22;2760;50.000;9.194;2023-06-14T03:12:58;14.80;91.10
5476;DHT22;2760;50.000;9.194;2023-06-14T03:15:27;14.60;91.40
5476;DHT22;2760;50.000;9.194;2023-06-14T03:17:54;14.60;91.40
5476;DHT22;2760;50.000;9.194;2023-06-14T03:20:23;14.70;91.50
5476;DHT22;2760;50.000;9.194;2023-06-14T03:22:58;14.40;91.70
5476;DHT22;2760;50.000;9.194;2023-06-14T03:25:25;14.20;92.30
5476;DHT22;2760;50.000;9.194;2023-06-14T03:27:56;15.90;92.90
5476;DHT22;2760;50.000;9.194;2023-06-14T03:30:23;16.00;93.10
5476;DHT22;2760;50.000;9.194;2023-06-14T03:32:52;14.50;92.70
5476;DHT22;2760;50.000;9.194;2023-06-14T03:35:22;14.20;92.40
5476;DHT22;2760;50.000;9.194;2023-06-14T03:37:52;14.00;92.20
5476;DHT22;2760;50.000;9.194;2023-06-14T03:40:22;14.10;92.80
5476;DHT22;2760;50.000;9.194;2023-06-14T03:42:57;14.00;92.50
5476;DHT22;2760;50.000;9.194;2023-06-14T03:45:26;14.10;92.60
5476;DHT22;2760;50.000;9.194;2023-06-14T03:47:55;14.20;92.80
5476;DHT22;2760;50.000;9.194;2023-06-14T03:50:24;15.30;93.10
5476;DHT22;2760;50.000;9.194;2023-06-14T03:52:54;13.60;92.00
5476;DHT22;2760;50.000;9.194;2023-06-14T03:55:24;13.20;92.20
5476;DHT22;2760;50.000;9.194;2023-06-14T03:57:53;14.70;92.90
5476;DHT22;2760;50.000;9.194;2023-06-14T04:00:32;14.30;92.40
5476;DHT22;2760;50.000;9.194;2023-06-14T04:03:01;12.70;91.60
5476;DHT22;2760;50.000;9.194;2023-06-14T04:05:30;14.40;92.60
5476;DHT22;2760;50.000;9.194;2023-06-14T04:07:59;16.10;93.20
5476;DHT22;2760;50.000;9.194;2023-06-14T04:10:33;14.50;92.50
5476;DHT22;2760;50.000;9.194;2023-06-14T04:13:01;15.40;93.20
5476;DHT22;2760;50.000;9.194;2023-06-14T04:15:29;14.50;92.40
5476;DHT22;2760;50.000;9.194;2023-06-14T04:17:58;15.90;93.30
5476;DHT22;2760;50.000;9.194;2023-06-14T04:20:26;14.50;92.60
5476;DHT22;2760;50.000;9.194;2023-06-14T04:22:56;14.60;92.50
5476;DHT22;2760;50.000;9.194;2023-06-14T04:25:24;14.80;92.40
5476;DHT22;2760;50.000;9.194;2023-06-14T04:27:56;14.90;92.40
5476;DHT22;2760;50.000;9.194;2023-06-14T04:30:24;15.00;92.60
5476;DHT22;2760;50.000;9.194;2023-06-14T04:32:57;15.20;92.20
5476;DHT22;2760;50.000;9.194;2023-06-14T04:35:26;15.60;92.10
5476;DHT22;2760;50.000;9.194;2023-06-14T04:37:54;16.00;91.40
5476;DHT22;2760;50.000;9.194;2023-06-14T04:40:24;16.20;91.40
5476;DHT22;2760;50.000;9.194;2023-06-14T04:42:52;15.20;90.60
5476;DHT22;2760;50.000;9.194;2023-06-14T04:45:22;16.50;91.00
5476;DHT22;2760;50.000;9.194;2023-06-14T04:47:50;16.60;91.00
5476;DHT22;2760;50.000;9.194;2023-06-14T04:50:23;16.70;91.10
5476;DHT22;2760;50.000;9.194;2023-06-14T04:52:52;16.60;91.10
5476;DHT22;2760;50.000;9.194;2023-06-14T04:55:20;15.50;90.60
5476;DHT22;2760;50.000;9.194;2023-06-14T04:57:48;14.80;90.00
5476;DHT22;2760;50.000;9.194;2023-06-14T05:00:22;16.90;90.40
5476;DHT22;2760;50.000;9.194;2023-06-14T05:02:50;17.10;89.60
5476;DHT22;2760;50.000;9.194;2023-06-14T05:05:19;17.30;89.00
5476;DHT22;2760;50.000;9.194;2023-06-14T05:07:47;17.40;88.90
5476;DHT22;2760;50.000;9.194;2023-06-14T05:10:14;17.70;87.70
5476;DHT22;2760;50.000;9.194;2023-06-14T05:12:44;17.90;84.90
5476;DHT22;2760;50.000;9.194;2023-06-14T05:15:14;18.20;84.00
5476;DHT22;2760;50.000;9.194;2023-06-14T05:17:45;18.50;82.90
5476;DHT22;2760;50.000;9.194;2023-06-14T05:20:21;18.70;82.10
5476;DHT22;2760;50.000;9.194;2023-06-14T05:22:51;19.00;82.00
5476;DHT22;2760;50.000;9.194;2023-06-14T05:25:18;19.20;81.80
5476;DHT22;2760;50.000;9.194;2023-06-14T05:27:45;19.50;80.80
5476;DHT22;2760;50.000;9.194;2023-06-14T05:30:14;19.40;80.60
5476;DHT22;2760;50.000;9.194;2023-06-14T05:32:47;19.60;80.60
5476;DHT22;2760;50.000;9.194;2023-06-14T05:35:20;19.60;80.50
5476;DHT22;2760;50.000;9.194;2023-06-14T05:37:53;19.70;79.60
5476;DHT22;2760;50.000;9.194;2023-06-14T05:40:21;19.70;80.90
5476;DHT22;2760;50.000;9.194;2023-06-14T05:42:48;19.80;80.30
5476;DHT22;2760;50.000;9.194;2023-06-14T05:45:16;20.00;80.10
5476;DHT22;2760;50.000;9.194;2023-06-14T05:47:44;20.10;79.20
5476;DHT22;2760;50.000;9.194;2023-06-14T05:50:25;20.10;80.00
5476;DHT22;2760;50.000;9.194;2023-06-14T05:52:53;20.40;78.80
5476;DHT22;2760;50.000;9.194;2023-06-14T05:55:23;20.30;78.70
5476;DHT22;2760;50.000;9.194;2023-06-14T05:57:54;20.40;78.90
5476;DHT22;2760;50.000;9.194;2023-06-14T06:00:23;20.40;78.60
5476;DHT22;2760;50.000;9.194;2023-06-14T06:02:51;20.60;78.30
5476;DHT22;2760;50.000;9.194;2023-06-14T06:05:20;20.80;78.10
5476;DHT22;2760;50.000;9.194;2023-06-14T06:07:48;20.90;77.10
5476;DHT22;2760;50.000;9.194;2023-06-14T06:10:16;20.70;77.30
5476;DHT22;2760;50.000;9.194;2023-06-14T06:12:48;20.80;77.60
5476;DHT22;2760;50.000;9.194;2023-06-14T06:15:17;21.10;77.10
5476;DHT22;2760;50.000;9.194;2023-06-14T06:17:46;21.40;76.50
5476;DHT22;2760;50.000;9.194;2023-06-14T06:20:14;21.50;75.80
5476;DHT22;2760;50.000;9.194;2023-06-14T06:22:44;21.30;75.60
5476;DHT22;2760;50.000;9.194;2023-06-14T06:25:11;21.50;75.80
5476;DHT22;2760;50.000;9.194;2023-06-14T06:27:40;21.60;74.30
5476;DHT22;2760;50.000;9.194;2023-06-14T06:30:08;21.50;75.40
5476;DHT22;2760;50.000;9.194;2023-06-14T06:32:36;21.70;75.10
5476;DHT22;2760;50.000;9.194;2023-06-14T06:35:04;21.60;75.30
5476;DHT22;2760;50.000;9.194;2023-06-14T06:37:32;21.90;74.90
5476;DHT22;2760;50.000;9.194;2023-06-14T06:40:01;21.70;75.00
5476;DHT22;2760;50.000;9.194;2023-06-14T06:42:29;21.80;75.20
5476;DHT22;2760;50.000;9.194;2023-06-14T06:45:01;21.60;74.60
5476;DHT22;2760;50.000;9.194;2023-06-14T06:47:29;21.70;75.30
5476;DHT22;2760;50.000;9.194;2023-06-14T06:49:57;21.90;74.70
5476;DHT22;2760;50.000;9.194;2023-06-14T06:52:24;22.00;74.00
5476;DHT22;2760;50.000;9.194;2023-06-14T06:54:51;21.80;73.80
5476;DHT22;2760;50.000;9.194;2023-06-14T06:57:22;21.90;74.00
5476;DHT22;2760;50.000;9.194;2023-06-14T06:59:50;21.90;74.00
5476;DHT22;2760;50.000;9.194;2023-06-14T07:02:18;20.40;72.80
5476;DHT22;2760;50.000;9.194;2023-06-14T07:04:45;22.10;74.50
5476;DHT22;2760;50.000;9.194;2023-06-14T07:07:13;22.20;73.50
5476;DHT22;2760;50.000;9.194;2023-06-14T07:09:40;22.20;73.50
5476;DHT22;2760;50.000;9.194;2023-06-14T07:12:09;22.30;73.20
5476;DHT22;2760;50.000;9.194;2023-06-14T07:14:40;22.50;72.90
5476;DHT22;2760;50.000;9.194;2023-06-14T07:17:07;22.70;73.20
5476;DHT22;2760;50.000;9.194;2023-06-14T07:19:36;22.90;72.30
5476;DHT22;2760;50.000;9.194;2023-06-14T07:22:07;22.60;72.40
5476;DHT22;2760;50.000;9.194;2023-06-14T07:24:34;22.60;72.50
5476;DHT22;2760;50.000;9.194;2023-06-14T07:27:03;22.50;72.20
5476;DHT22;2760;50.000;9.194;2023-06-14T07:29:30;22.80;71.70
5476;DHT22;2760;50.000;9.194;2023-06-14T07:31:59;22.90;72.30
5476;DHT22;2760;50.000;9.194;2023-06-14T07:34:27;23.00;72.00
5476;DHT22;2760;50.000;9.194;2023-06-14T07:36:54;22.90;71.90
5476;DHT22;2760;50.000;9.194;2023-06-14T07:39:22;23.00;72.20
5476;DHT22;2760;50.000;9.194;2023-06-14T07:41:53;24.70;72.00
5476;DHT22;2760;50.000;9.194;2023-06-14T07:44:20;23.40;71.40
5476;DHT22;2760;50.000;9.194;2023-06-14T07:46:51;23.30;71.20
5476;DHT22;2760;50.000;9.194;2023-06-14T07:49:21;23.30;71.00
5476;DHT22;2760;50.000;9.194;2023-06-14T07:52:01;23.50;70.80
5476;DHT22;2760;50.000;9.194;2023-06-14T07:54:29;23.50;69.40
5476;DHT22;2760;50.000;9.194;2023-06-14T07:57:12;23.60;70.10
5476;DHT22;2760;50.000;9.194;2023-06-14T07:59:39;23.70;70.10
5476;DHT22;2760;50.000;9.194;2023-06-14T08:02:07;24.00;70.00
5476;DHT22;2760;50.000;9.194;2023-06-14T08:04:45;24.10;68.70
5476;DHT22;2760;50.000;9.194;2023-06-14T08:07:14;23.90;69.30
5476;DHT22;2760;50.000;9.194;2023-06-14T08:09:41;24.00;69.20
5476;DHT22;2760;50.000;9.194;2023-06-14T08:12:09;23.70;69.00
5476;DHT22;2760;50.000;9.194;2023-06-14T08:14:36;23.60;68.70
5476;DHT22;2760;50.000;9.194;2023-06-14T08:17:07;23.90;68.00
5476;DHT22;2760;50.000;9.194;2023-06-14T08:19:35;24.40;67.40
5476;DHT22;2760;50.000;9.194;2023-06-14T08:22:05;24.80;66.70
5476;DHT22;2760;50.000;9.194;2023-06-14T08:24:37;24.60;66.50
5476;DHT22;2760;50.000;9.194;2023-06-14T08:27:06;24.60;67.20
5476;DHT22;2760;50.000;9.194;2023-06-14T08:29:35;24.80;66.60
5476;DHT22;2760;50.000;9.194;2023-06-14T08:32:07;24.70;66.90
5476;DHT22;2760;50.000;9.194;2023-06-14T08:34:36;24.40;67.60
5476;DHT22;2760;50.000;9.194;2023-06-14T08:37:05;24.30;66.90
5476;DHT22;2760;50.000;9.194;2023-06-14T08:39:33;24.70;66.60
5476;DHT22;2760;50.000;9.194;2023-06-14T08:42:03;25.20;66.70
5476;DHT22;2760;50.000;9.194;2023-06-14T08:44:33;25.60;66.10
5476;DHT22;2760;50.000;9.194;2023-06-14T08:47:02;25.30;65.50
5476;DHT22;2760;50.000;9.194;2023-06-14T08:49:31;25.40;65.90
5476;DHT22;2760;50.000;9.194;2023-06-14T08:52:00;25.50;65.60
5476;DHT22;2760;50.000;9.194;2023-06-14T08:54:29;24.90;65.00
5476;DHT22;2760;50.000;9.194;2023-06-14T08:57:00;24.60;64.40
5476;DHT22;2760;50.000;9.194;2023-06-14T08:59:30;24.10;63.90
5476;DHT22;2760;50.000;9.194;2023-06-14T09:02:05;25.10;64.60
5476;DHT22;2760;50.000;9.194;2023-06-14T09:04:32;25.40;62.30
5476;DHT22;2760;50.000;9.194;2023-06-14T09:07:03;25.10;65.10
5476;DHT22;2760;50.000;9.194;2023-06-14T09:09:38;25.10;65.20
5476;DHT22;2760;50.000;9.194;2023-06-14T09:12:07;25.30;64.80
5476;DHT22;2760;50.000;9.194;2023-06-14T09:14:37;25.70;64.90
5476;DHT22;2760;50.000;9.194;2023-06-14T09:17:06;25.70;63.40
5476;DHT22;2760;50.000;9.194;2023-06-14T09:19:40;26.40;65.50
5476;DHT22;2760;50.000;9.194;2023-06-14T09:22:07;25.90;65.00
5476;DHT22;2760;50.000;9.194;2023-06-14T09:24:38;25.50;64.20
5476;DHT22;2760;50.000;9.194;2023-06-14T09:27:15;25.20;65.50
5476;DHT22;2760;50.000;9.194;2023-06-14T09:29:44;25.50;61.80
5476;DHT22;2760;50.000;9.194;2023-06-14T09:32:12;25.70;62.70
5476;DHT22;2760;50.000;9.194;2023-06-14T09:34:40;25.70;63.30
5476;DHT22;2760;50.000;9.194;2023-06-14T09:37:09;25.80;62.40
5476;DHT22;2760;50.000;9.194;2023-06-14T09:39:49;26.30;63.50
5476;DHT22;2760;50.000;9.194;2023-06-14T09:42:17;26.40;63.60
5476;DHT22;2760;50.000;9.194;2023-06-14T09:44:46;25.80;63.20
5476;DHT22;2760;50.000;9.194;2023-06-14T09:47:15;25.00;64.10
5476;DHT22;2760;50.000;9.194;2023-06-14T09:49:43;24.20;65.70
5476;DHT22;2760;50.000;9.194;2023-06-14T09:52:15;24.20;65.90
5476;DHT22;2760;50.000;9.194;2023-06-14T09:54:47;25.60;65.20
5476;DHT22;2760;50.000;9.194;2023-06-14T09:57:15;25.70;65.60
5476;DHT22;2760;50.000;9.194;2023-06-14T09:59:45;26.00;64.90
5476;DHT22;2760;50.000;9.194;2023-06-14T10:02:21;24.80;65.80
5476;DHT22;2760;50.000;9.194;2023-06-14T10:04:55;25.00;66.80
5476;DHT22;2760;50.000;9.194;2023-06-14T10:07:26;25.40;66.00
5476;DHT22;2760;50.000;9.194;2023-06-14T10:10:08;25.30;65.10
5476;DHT22;2760;50.000;9.194;2023-06-14T10:12:36;23.70;63.00
5476;DHT22;2760;50.000;9.194;2023-06-14T10:15:05;25.80;65.10
5476;DHT22;2760;50.000;9.194;2023-06-14T10:17:38;26.80;64.80
5476;DHT22;2760;50.000;9.194;2023-06-14T10:20:26;26.70;61.90
5476;DHT22;2760;50.000;9.194;2023-06-14T10:22:59;24.50;60.40
5476;DHT22;2760;50.000;9.194;2023-06-14T10:25:31;26.40;62.00
5476;DHT22;2760;50.000;9.194;2023-06-14T10:28:18;26.90;60.70
5476;DHT22;2760;50.000;9.194;2023-06-14T10:31:07;26.90;61.70
5476;DHT22;2760;50.000;9.194;2023-06-14T10:33:39;26.90;62.70
5476;DHT22;2760;50.000;9.194;2023-06-14T10:36:09;27.10;61.40
5476;DHT22;2760;50.000;9.194;2023-06-14T10:38:38;26.50;63.00
5476;DHT22;2760;50.000;9.194;2023-06-14T10:41:09;25.40;64.80
5476;DHT22;2760;50.000;9.194;2023-06-14T10:43:37;25.30;65.00
5476;DHT22;2760;50.000;9.194;2023-06-14T10:46:17;25.80;64.60
5476;DHT22;2760;50.000;9.194;2023-06-14T10:48:47;26.60;64.60
5476;DHT22;2760;50.000;9.194;2023-06-14T10:51:19;26.70;60.80
5476;DHT22;2760;50.000;9.194;2023-06-14T10:53:51;27.00;61.00
5476;DHT22;2760;50.000;9.194;2023-06-14T10:56:27;26.90;62.10
5476;DHT22;2760;50.000;9.194;2023-06-14T11:01:35;26.60;61.80
5476;DHT22;2760;50.000;9.194;2023-06-14T11:04:10;27.10;62.80
5476;DHT22;2760;50.000;9.194;2023-06-14T11:06:46;26.80;62.30
5476;DHT22;2760;50.000;9.194;2023-06-14T11:09:38;27.10;61.30
5476;DHT22;2760;50.000;9.194;2023-06-14T11:12:10;27.20;61.70
5476;DHT22;2760;50.000;9.194;2023-06-14T11:14:38;27.80;60.00
5476;DHT22;2760;50.000;9.194;2023-06-14T11:17:05;27.40;61.10
5476;DHT22;2760;50.000;9.194;2023-06-14T11:19:33;27.60;59.20
5476;DHT22;2760;50.000;9.194;2023-06-14T11:22:01;26.70;61.40
5476;DHT22;2760;50.000;9.194;2023-06-14T11:24:28;26.80;60.40
5476;DHT22;2760;50.000;9.194;2023-06-14T11:27:07;26.60;61.60
5476;DHT22;2760;50.000;9.194;2023-06-14T11:29:36;26.80;61.00
5476;DHT22;2760;50.000;9.194;2023-06-14T11:32:06;27.10;60.20
5476;DHT22;2760;50.000;9.194;2023-06-14T11:34:38;27.30;59.00
5476;DHT22;2760;50.000;9.194;2023-06-14T11:37:05;27.30;59.20
5476;DHT22;2760;50.000;9.194;2023-06-14T11:39:34;26.70;59.50
5476;DHT22;2760;50.000;9.194;2023-06-14T11:42:01;26.50;60.90
5476;DHT22;2760;50.000;9.194;2023-06-14T11:44:29;26.10;62.10
5476;DHT22;2760;50.000;9.194;2023-06-14T11:46:58;26.00;61.10
5476;DHT22;2760;50.000;9.194;2023-06-14T11:49:25;25.90;61.70
5476;DHT22;2760;50.000;9.194;2023-06-14T11:51:53;26.30;61.60
5476;DHT22;2760;50.000;9.194;2023-06-14T11:54:21;26.80;59.60
5476;DHT22;2760;50.000;9.194;2023-06-14T11:56:49;27.10;59.30
5476;DHT22;2760;50.000;9.194;2023-06-14T11:59:17;27.30;60.00
5476;DHT22;2760;50.000;9.194;2023-06-14T12:01:47;26.90;58.70
5476;DHT22;2760;50.000;9.194;2023-06-14T12:04:23;26.20;60.00
5476;DHT22;2760;50.000;9.194;2023-06-14T12:06:51;26.50;59.80
5476;DHT22;2760;50.000;9.194;2023-06-14T12:09:21;26.30;60.50
5476;DHT22;2760;50.000;9.194;2023-06-14T12:11:49;25.60;60.40
5476;DHT22;2760;50.000;9.194;2023-06-14T12:14:17;26.00;61.20
5476;DHT22;2760;50.000;9.194;2023-06-14T12:16:44;26.80;60.30
5476;DHT22;2760;50.000;9.194;2023-06-14T12:19:13;26.90;59.50
5476;DHT22;2760;50.000;9.194;2023-06-14T12:21:45;26.90;58.60
5476;DHT22;2760;50.000;9.194;2023-06-14T12:24:14;28.00;59.10
5476;DHT22;2760;50.000;9.194;2023-06-14T12:26:51;27.60;58.30
5476;DHT22;2760;50.000;9.194;2023-06-14T12:29:19;28.40;56.80
5476;DHT22;2760;50.000;9.194;2023-06-14T12:31:47;28.20;57.00
5476;DHT22;2760;50.000;9.194;2023-06-14T12:34:14;27.90;57.20
5476;DHT22;2760;50.000;9.194;2023-06-14T12:36:43;27.90;57.30
5476;DHT22;2760;50.000;9.194;2023-06-14T12:39:13;27.30;57.50
5476;DHT22;2760;50.000;9.194;2023-06-14T12:41:43;26.90;57.20
5476;DHT22;2760;50.000;9.194;2023-06-14T12:44:11;27.00;57.70
5476;DHT22;2760;50.000;9.194;2023-06-14T12:46:38;26.80;57.90
5476;DHT22;2760;50.000;9.194;2023-06-14T12:49:08;26.40;58.50
5476;DHT22;2760;50.000;9.194;2023-06-14T12:51:35;25.90;60.40
5476;DHT22;2760;50.000;9.194;2023-06-14T12:54:06;25.60;59.60
5476;DHT22;2760;50.000;9.194;2023-06-14T12:56:34;25.60;60.50
5476;DHT22;2760;50.000;9.194;2023-06-14T12:59:02;25.60;60.00
5476;DHT22;2760;50.000;9.194;2023-06-14T13:01:30;24.20;58.70
5476;DHT22;2760;50.000;9.194;2023-06-14T13:03:58;25.80;59.60
5476;DHT22;2760;50.000;9.194;2023-06-14T13:06:32;25.60;59.60
5476;DHT22;2760;50.000;9.194;2023-06-14T13:09:00;26.80;59.10
5476;DHT22;2760;50.000;9.194;2023-06-14T13:11:30;27.10;57.90
5476;DHT22;2760;50.000;9.194;2023-06-14T13:13:58;27.00;57.70
5476;DHT22;2760;50.000;9.194;2023-06-14T13:16:25;27.80;58.80
5476;DHT22;2760;50.000;9.194;2023-06-14T13:18:52;28.70;57.20
5476;DHT22;2760;50.000;9.194;2023-06-14T13:21:20;28.00;57.20
5476;DHT22;2760;50.000;9.194;2023-06-14T13:23:48;27.20;58.00
5476;DHT22;2760;50.000;9.194;2023-06-14T13:26:16;27.30;58.30
5476;DHT22;2760;50.000;9.194;2023-06-14T13:28:51;26.30;57.40
5476;DHT22;2760;50.000;9.194;2023-06-14T13:31:22;26.80;58.20
5476;DHT22;2760;50.000;9.194;2023-06-14T13:33:53;26.80;57.40
5476;DHT22;2760;50.000;9.194;2023-06-14T13:36:22;27.20;57.80
5476;DHT22;2760;50.000;9.194;2023-06-14T13:38:49;27.70;57.60
5476;DHT22;2760;50.000;9.194;2023-06-14T13:41:18;27.70;56.20
5476;DHT22;2760;50.000;9.194;2023-06-14T13:43:45;27.30;56.50
5476;DHT22;2760;50.000;9.194;2023-06-14T13:46:18;27.80;57.80
5476;DHT22;2760;50.000;9.194;2023-06-14T13:48:46;25.60;57.30
5476;DHT22;2760;50.000;9.194;2023-06-14T13:51:13;25.40;58.30
5476;DHT22;2760;50.000;9.194;2023-06-14T13:53:40;26.30;60.80
5476;DHT22;2760;50.000;9.194;2023-06-14T13:56:07;26.00;59.10
5476;DHT22;2760;50.000;9.194;2023-06-14T13:58:35;25.80;59.30
5476;DHT22;2760;50.000;9.194;2023-06-14T14:01:02;25.80;61.00
5476;DHT22;2760;50.000;9.194;2023-06-14T14:03:32;25.70;59.80
5476;DHT22;2760;50.000;9.194;2023-06-14T14:06:00;25.80;59.20
5476;DHT22;2760;50.000;9.194;2023-06-14T14:08:28;26.10;58.50
5476;DHT22;2760;50.000;9.194;2023-06-14T14:10:56;26.20;58.50
5476;DHT22;2760;50.000;9.194;2023-06-14T14:13:24;26.40;58.60
5476;DHT22;2760;50.000;9.194;2023-06-14T14:15:52;26.50;58.40
5476;DHT22;2760;50.000;9.194;2023-06-14T14:18:20;26.70;58.00
5476;DHT22;2760;50.000;9.194;2023-06-14T14:20:50;26.70;57.10
5476;DHT22;2760;50.000;9.194;2023-06-14T14:23:17;26.70;57.80
5476;DHT22;2760;50.000;9.194;2023-06-14T14:25:46;26.70;59.50
5476;DHT22;2760;50.000;9.194;2023-06-14T14:28:27;26.80;57.80
5476;DHT22;2760;50.000;9.194;2023-06-14T14:30:56;26.10;58.20
5476;DHT22;2760;50.000;9.194;2023-06-14T14:33:25;26.50;58.60
5476;DHT22;2760;50.000;9.194;2023-06-14T14:35:54;26.50;58.20
5476;DHT22;2760;50.000;9.194;2023-06-14T14:38:21;26.40;57.80
5476;DHT22;2760;50.000;9.194;2023-06-14T14:40:53;26.00;58.00
5476;DHT22;2760;50.000;9.194;2023-06-14T14:43:24;25.10;58.60
5476;DHT22;2760;50.000;9.194;2023-06-14T14:46:06;26.40;58.60
5476;DHT22;2760;50.000;9.194;2023-06-14T14:48:40;26.40;58.40
5476;DHT22;2760;50.000;9.194;2023-06-14T14:51:17;26.50;58.40
5476;DHT22;2760;50.000;9.194;2023-06-14T14:53:46;26.60;57.90
5476;DHT22;2760;50.000;9.194;2023-06-14T14:56:29;26.20;58.80
5476;DHT22;2760;50.000;9.194;2023-06-14T14:58:56;26.40;59.30
5476;DHT22;2760;50.000;9.194;2023-06-14T15:01:24;26.30;59.50
5476;DHT22;2760;50.000;9.194;2023-06-14T15:03:57;26.30;58.00
5476;DHT22;2760;50.000;9.194;2023-06-14T15:06:37;26.40;57.40
5476;DHT22;2760;50.000;9.194;2023-06-14T15:09:07;26.20;58.00
5476;DHT22;2760;50.000;9.194;2023-06-14T15:11:35;26.20;58.20
5476;DHT22;2760;50.000;9.194;2023-06-14T15:14:06;26.60;57.80
5476;DHT22;2760;50.000;9.194;2023-06-14T15:16:39;26.20;58.80
5476;DHT22;2760;50.000;9.194;2023-06-14T15:19:20;26.50;58.60
5476;DHT22;2760;50.000;9.194;2023-06-14T15:21:54;26.30;58.70
5476;DHT22;2760;50.000;9.194;2023-06-14T15:24:22;26.10;58.50
5476;DHT22;2760;50.000;9.194;2023-06-14T15:26:51;26.20;58.00
5476;DHT22;2760;50.000;9.194;2023-06-14T15:29:19;26.40;58.10
5476;DHT22;2760;50.000;9.194;2023-06-14T15:31:47;26.20;59.00
5476;DHT22;2760;50.000;9.194;2023-06-14T15:34:17;26.10;59.20
5476;DHT22;2760;50.000;9.194;2023-06-14T15:36:45;26.00;59.50
5476;DHT22;2760;50.000;9.194;2023-06-14T15:39:29;26.00;59.70
5476;DHT22;2760;50.000;9.194;2023-06-14T15:41:58;26.10;60.00
5476;DHT22;2760;50.000;9.194;2023-06-14T15:44:37;26.00;59.60
5476;DHT22;2760;50.000;9.194;2023-06-14T15:47:09;25.90;60.10
5476;DHT22;2760;50.000;9.194;2023-06-14T15:49:38;26.00;58.70
5476;DHT22;2760;50.000;9.194;2023-06-14T15:52:10;25.90;58.50
5476;DHT22;2760;50.000;9.194;2023-06-14T15:54:57;25.70;57.40
5476;DHT22;2760;50.000;9.194;2023-06-14T15:57:38;25.90;58.50
5476;DHT22;2760;50.000;9.194;2023-06-14T16:00:07;26.00;58.50
5476;DHT22;2760;50.000;9.194;2023-06-14T16:02:38;25.90;58.60
5476;DHT22;2760;50.000;9.194;2023-06-14T16:05:08;25.80;58.90
5476;DHT22;2760;50.000;9.194;2023-06-14T16:07:54;26.00;58.90
5476;DHT22;2760;50.000;9.194;2023-06-14T16:10:24;26.00;61.10
5476;DHT22;2760;50.000;9.194;2023-06-14T16:12:52;25.90;60.50
5476;DHT22;2760;50.000;9.194;2023-06-14T16:15:20;25.40;60.30
5476;DHT22;2760;50.000;9.194;2023-06-14T16:17:54;25.60;61.60
5476;DHT22;2760;50.000;9.194;2023-06-14T16:20:22;25.90;60.40
5476;DHT22;2760;50.000;9.194;2023-06-14T16:22:50;25.70;61.20